N7TA KSGU-KDVT
Flight info
| Callsign | N7TA |
|---|---|
| Flight time | 0h 40m |
| Altitude | 39000 |
| Route | DRK DSERT DSERT2 |
| Aircraft | C750/M-SBDE3FGHRWXY/S |
Departure
| Time | 2026-04-25 16:59 |
|---|---|
| Airport | St George Regional Airport (KSGU) |
Arrival
| Time | 2026-04-25 17:39 |
|---|---|
| Airport | Phoenix Deer Valley Airport (KDVT) |
| Time | Latitude | Longitude | Altitude | Speed | Heading |
|---|---|---|---|---|---|
| 2026-04-25 16:39 | 37.03047 | -113.50976 | 2871 ft | 0 kts | 112° |
| 2026-04-25 16:52 | 37.03052 | -113.50991 | 2870 ft | 0 kts | 112° |
| 2026-04-25 16:52 | 37.03057 | -113.51006 | 2870 ft | 8 kts | 112° |
| 2026-04-25 16:52 | 37.03071 | -113.51042 | 2868 ft | 0 kts | 70° |
| 2026-04-25 16:53 | 37.03105 | -113.51070 | 2866 ft | 11 kts | 320° |
| 2026-04-25 16:53 | 37.03188 | -113.51047 | 2865 ft | 12 kts | 23° |
| 2026-04-25 16:53 | 37.03264 | -113.51007 | 2865 ft | 12 kts | 22° |
| 2026-04-25 16:54 | 37.03352 | -113.50961 | 2865 ft | 15 kts | 22° |
| 2026-04-25 16:54 | 37.03457 | -113.50906 | 2864 ft | 16 kts | 22° |
| 2026-04-25 16:54 | 37.03559 | -113.50850 | 2864 ft | 15 kts | 23° |
| 2026-04-25 16:54 | 37.03654 | -113.50801 | 2864 ft | 14 kts | 21° |
| 2026-04-25 16:55 | 37.03737 | -113.50759 | 2866 ft | 12 kts | 24° |
| 2026-04-25 16:55 | 37.03819 | -113.50714 | 2868 ft | 14 kts | 24° |
| 2026-04-25 16:55 | 37.03915 | -113.50662 | 2867 ft | 16 kts | 22° |
| 2026-04-25 16:55 | 37.04019 | -113.50607 | 2866 ft | 16 kts | 23° |
| 2026-04-25 16:56 | 37.04125 | -113.50551 | 2865 ft | 18 kts | 22° |
| 2026-04-25 16:56 | 37.04247 | -113.50487 | 2861 ft | 19 kts | 22° |
| 2026-04-25 16:56 | 37.04369 | -113.50423 | 2862 ft | 19 kts | 22° |
| 2026-04-25 16:56 | 37.04487 | -113.50360 | 2861 ft | 18 kts | 23° |
| 2026-04-25 16:57 | 37.04598 | -113.50302 | 2862 ft | 16 kts | 23° |
| 2026-04-25 16:57 | 37.04662 | -113.50268 | 2863 ft | 14 kts | 23° |
| 2026-04-25 16:57 | 37.04756 | -113.50261 | 2858 ft | 10 kts | 303° |
| 2026-04-25 16:57 | 37.04783 | -113.50337 | 2858 ft | 9 kts | 292° |
| 2026-04-25 16:58 | 37.04805 | -113.50404 | 2859 ft | 7 kts | 291° |
| 2026-04-25 16:58 | 37.04783 | -113.50430 | 2858 ft | 5 kts | 185° |
| 2026-04-25 16:58 | 37.04687 | -113.50480 | 2857 ft | 52 kts | 202° |
| 2026-04-25 16:58 | 37.04014 | -113.50833 | 2866 ft | 147 kts | 203° |
| 2026-04-25 16:59 | 37.02944 | -113.51386 | 3084 ft | 180 kts | 202° |
| 2026-04-25 16:59 | 37.01710 | -113.51986 | 3557 ft | 204 kts | 199° |
| 2026-04-25 16:59 | 37.00217 | -113.52044 | 4192 ft | 223 kts | 168° |
| 2026-04-25 16:59 | 36.98771 | -113.51411 | 5269 ft | 217 kts | 157° |
| 2026-04-25 17:00 | 36.97416 | -113.50602 | 6258 ft | 221 kts | 156° |
| 2026-04-25 17:00 | 36.95951 | -113.49715 | 6747 ft | 246 kts | 156° |
| 2026-04-25 17:00 | 36.94327 | -113.48731 | 7236 ft | 271 kts | 157° |
| 2026-04-25 17:00 | 36.92625 | -113.47700 | 8338 ft | 269 kts | 156° |
| 2026-04-25 17:01 | 36.90932 | -113.46667 | 9448 ft | 273 kts | 157° |
| 2026-04-25 17:01 | 36.89204 | -113.45609 | 10282 ft | 282 kts | 156° |
| 2026-04-25 17:01 | 36.87337 | -113.44592 | 10483 ft | 306 kts | 166° |
| 2026-04-25 17:01 | 36.85136 | -113.44495 | 10432 ft | 333 kts | 191° |
| 2026-04-25 17:02 | 36.82814 | -113.44674 | 11155 ft | 334 kts | 174° |
| 2026-04-25 17:02 | 36.80702 | -113.43580 | 12310 ft | 330 kts | 147° |
| 2026-04-25 17:02 | 36.78995 | -113.41641 | 12937 ft | 339 kts | 144° |
| 2026-04-25 17:02 | 36.76796 | -113.40426 | 12979 ft | 355 kts | 172° |
| 2026-04-25 17:03 | 36.74374 | -113.39879 | 13672 ft | 357 kts | 164° |
| 2026-04-25 17:03 | 36.72098 | -113.38576 | 14220 ft | 366 kts | 154° |
| 2026-04-25 17:03 | 36.69884 | -113.36957 | 14788 ft | 372 kts | 152° |
| 2026-04-25 17:03 | 36.67676 | -113.35237 | 15367 ft | 377 kts | 151° |
| 2026-04-25 17:04 | 36.65454 | -113.33467 | 15953 ft | 382 kts | 151° |
| 2026-04-25 17:04 | 36.63160 | -113.31759 | 16547 ft | 386 kts | 155° |
| 2026-04-25 17:04 | 36.60717 | -113.30384 | 17162 ft | 386 kts | 164° |
| 2026-04-25 17:04 | 36.58155 | -113.29357 | 17835 ft | 388 kts | 168° |
| 2026-04-25 17:05 | 36.55581 | -113.28431 | 18428 ft | 393 kts | 168° |
| 2026-04-25 17:05 | 36.50380 | -113.26051 | 19700 ft | 402 kts | 164° |
| 2026-04-25 17:05 | 36.47749 | -113.24846 | 20350 ft | 405 kts | 166° |
| 2026-04-25 17:06 | 36.45067 | -113.23716 | 20998 ft | 408 kts | 167° |
| 2026-04-25 17:06 | 36.42373 | -113.22552 | 21658 ft | 413 kts | 166° |
| 2026-04-25 17:06 | 36.39662 | -113.21321 | 22317 ft | 417 kts | 165° |
| 2026-04-25 17:06 | 36.36924 | -113.20090 | 22958 ft | 420 kts | 166° |
| 2026-04-25 17:07 | 36.34148 | -113.18877 | 23586 ft | 423 kts | 166° |
| 2026-04-25 17:07 | 36.31357 | -113.17658 | 24094 ft | 428 kts | 166° |
| 2026-04-25 17:07 | 36.28540 | -113.16410 | 24666 ft | 431 kts | 166° |
| 2026-04-25 17:07 | 36.25706 | -113.15148 | 25193 ft | 434 kts | 166° |
| 2026-04-25 17:08 | 36.22852 | -113.13895 | 25746 ft | 436 kts | 167° |
| 2026-04-25 17:08 | 36.19981 | -113.12639 | 26283 ft | 440 kts | 167° |
| 2026-04-25 17:08 | 36.17086 | -113.11363 | 26818 ft | 443 kts | 167° |
| 2026-04-25 17:08 | 36.14204 | -113.10092 | 27347 ft | 447 kts | 167° |
| 2026-04-25 17:09 | 36.11258 | -113.08796 | 27813 ft | 451 kts | 167° |
| 2026-04-25 17:09 | 36.08295 | -113.07493 | 28389 ft | 454 kts | 167° |
| 2026-04-25 17:09 | 36.05303 | -113.06190 | 28891 ft | 458 kts | 167° |
| 2026-04-25 17:09 | 36.02282 | -113.04870 | 29406 ft | 461 kts | 167° |
| 2026-04-25 17:10 | 35.99245 | -113.03534 | 29918 ft | 464 kts | 167° |
| 2026-04-25 17:10 | 35.96195 | -113.02196 | 30339 ft | 468 kts | 168° |
| 2026-04-25 17:10 | 35.93115 | -113.00852 | 30760 ft | 470 kts | 168° |
| 2026-04-25 17:10 | 35.90032 | -112.99505 | 31395 ft | 468 kts | 168° |
| 2026-04-25 17:11 | 35.86966 | -112.98164 | 32005 ft | 467 kts | 169° |
| 2026-04-25 17:11 | 35.83904 | -112.96830 | 32603 ft | 466 kts | 169° |
| 2026-04-25 17:11 | 35.80845 | -112.95499 | 33236 ft | 465 kts | 169° |
| 2026-04-25 17:11 | 35.77836 | -112.94188 | 33860 ft | 463 kts | 169° |
| 2026-04-25 17:12 | 35.74789 | -112.92862 | 34408 ft | 462 kts | 170° |
| 2026-04-25 17:12 | 35.71761 | -112.91546 | 34949 ft | 461 kts | 170° |
| 2026-04-25 17:12 | 35.68742 | -112.90236 | 35464 ft | 460 kts | 170° |
| 2026-04-25 17:12 | 35.65718 | -112.88924 | 36030 ft | 459 kts | 171° |
| 2026-04-25 17:13 | 35.62702 | -112.87615 | 36594 ft | 458 kts | 171° |
| 2026-04-25 17:13 | 35.61725 | -112.87192 | 36779 ft | 458 kts | 171° |
| 2026-04-25 17:13 | 35.56701 | -112.85017 | 37771 ft | 456 kts | 171° |
| 2026-04-25 17:13 | 35.53707 | -112.83721 | 38392 ft | 455 kts | 171° |
| 2026-04-25 17:14 | 35.50756 | -112.82446 | 38782 ft | 457 kts | 171° |
| 2026-04-25 17:14 | 35.47710 | -112.81142 | 38763 ft | 469 kts | 171° |
| 2026-04-25 17:14 | 35.44593 | -112.79801 | 38761 ft | 480 kts | 171° |
| 2026-04-25 17:14 | 35.41413 | -112.78419 | 38799 ft | 490 kts | 171° |
| 2026-04-25 17:15 | 35.34842 | -112.75597 | 38802 ft | 510 kts | 171° |
| 2026-04-25 17:15 | 35.28096 | -112.72681 | 38804 ft | 516 kts | 170° |
| 2026-04-25 17:16 | 35.21314 | -112.69778 | 38792 ft | 517 kts | 171° |
| 2026-04-25 17:16 | 35.14516 | -112.66864 | 38792 ft | 517 kts | 171° |
| 2026-04-25 17:17 | 35.07754 | -112.63974 | 38795 ft | 518 kts | 171° |
| 2026-04-25 17:17 | 35.00975 | -112.61078 | 38793 ft | 516 kts | 171° |
| 2026-04-25 17:18 | 34.94196 | -112.58193 | 38794 ft | 516 kts | 171° |
| 2026-04-25 17:18 | 34.87462 | -112.55316 | 38370 ft | 500 kts | 171° |
| 2026-04-25 17:19 | 34.84247 | -112.53936 | 37827 ft | 479 kts | 172° |
| 2026-04-25 17:19 | 34.81169 | -112.52632 | 37335 ft | 460 kts | 172° |
| 2026-04-25 17:19 | 34.78179 | -112.51380 | 36847 ft | 450 kts | 173° |
| 2026-04-25 17:19 | 34.75217 | -112.50140 | 36283 ft | 452 kts | 172° |
| 2026-04-25 17:20 | 34.72230 | -112.48878 | 35891 ft | 457 kts | 172° |
| 2026-04-25 17:20 | 34.69225 | -112.47596 | 35358 ft | 459 kts | 171° |
| 2026-04-25 17:20 | 34.66207 | -112.46315 | 34848 ft | 460 kts | 171° |
| 2026-04-25 17:20 | 34.63171 | -112.45039 | 34355 ft | 463 kts | 172° |
| 2026-04-25 17:21 | 34.60122 | -112.43757 | 33833 ft | 465 kts | 171° |
| 2026-04-25 17:21 | 34.57101 | -112.42217 | 33207 ft | 484 kts | 159° |
| 2026-04-25 17:21 | 34.54376 | -112.39719 | 32560 ft | 506 kts | 143° |
| 2026-04-25 17:21 | 34.52314 | -112.36162 | 31911 ft | 526 kts | 122° |
| 2026-04-25 17:22 | 34.51123 | -112.31926 | 31389 ft | 533 kts | 109° |
| 2026-04-25 17:22 | 34.50831 | -112.30515 | 31251 ft | 534 kts | 108° |
| 2026-04-25 17:22 | 34.49517 | -112.23146 | 30340 ft | 537 kts | 105° |
| 2026-04-25 17:22 | 34.48856 | -112.18721 | 29711 ft | 531 kts | 101° |
| 2026-04-25 17:23 | 34.48493 | -112.14279 | 29008 ft | 526 kts | 96° |
| 2026-04-25 17:23 | 34.48288 | -112.09873 | 28327 ft | 520 kts | 95° |
| 2026-04-25 17:23 | 34.48010 | -112.05531 | 27642 ft | 513 kts | 98° |
| 2026-04-25 17:23 | 34.47535 | -112.01280 | 26989 ft | 505 kts | 101° |
| 2026-04-25 17:24 | 34.47059 | -111.97083 | 26362 ft | 501 kts | 99° |
| 2026-04-25 17:24 | 34.46727 | -111.92909 | 25739 ft | 495 kts | 97° |
| 2026-04-25 17:24 | 34.46423 | -111.88751 | 25140 ft | 493 kts | 98° |
| 2026-04-25 17:24 | 34.46032 | -111.84650 | 24547 ft | 487 kts | 100° |
| 2026-04-25 17:25 | 34.45657 | -111.81980 | 24138 ft | 480 kts | 105° |
| 2026-04-25 17:25 | 34.44449 | -111.78284 | 23490 ft | 466 kts | 123° |
| 2026-04-25 17:25 | 34.42576 | -111.75187 | 22771 ft | 448 kts | 139° |
| 2026-04-25 17:25 | 34.39397 | -111.72237 | 21864 ft | 425 kts | 158° |
| 2026-04-25 17:26 | 34.36706 | -111.70934 | 21203 ft | 410 kts | 171° |
| 2026-04-25 17:26 | 34.34838 | -111.70500 | 20772 ft | 400 kts | 179° |
| 2026-04-25 17:26 | 34.32102 | -111.70478 | 20120 ft | 388 kts | 191° |
| 2026-04-25 17:26 | 34.29486 | -111.71106 | 19280 ft | 380 kts | 200° |
| 2026-04-25 17:27 | 34.26938 | -111.71901 | 18483 ft | 375 kts | 199° |
| 2026-04-25 17:27 | 34.24452 | -111.72647 | 17626 ft | 370 kts | 199° |
| 2026-04-25 17:27 | 34.21933 | -111.73397 | 16702 ft | 366 kts | 199° |
| 2026-04-25 17:27 | 34.20312 | -111.73890 | 16124 ft | 360 kts | 199° |
| 2026-04-25 17:28 | 34.17122 | -111.74859 | 15001 ft | 354 kts | 199° |
| 2026-04-25 17:28 | 34.14746 | -111.75595 | 14173 ft | 350 kts | 199° |
| 2026-04-25 17:28 | 34.12391 | -111.76313 | 13322 ft | 347 kts | 198° |
| 2026-04-25 17:28 | 34.10066 | -111.77004 | 12620 ft | 338 kts | 198° |
| 2026-04-25 17:29 | 34.07802 | -111.77683 | 12221 ft | 335 kts | 198° |
| 2026-04-25 17:29 | 34.05538 | -111.78365 | 11782 ft | 337 kts | 198° |
| 2026-04-25 17:29 | 34.03273 | -111.79051 | 11342 ft | 334 kts | 198° |
| 2026-04-25 17:29 | 34.01063 | -111.79715 | 10894 ft | 316 kts | 197° |
| 2026-04-25 17:30 | 33.99010 | -111.80333 | 10473 ft | 292 kts | 197° |
| 2026-04-25 17:30 | 33.97115 | -111.80914 | 10118 ft | 274 kts | 197° |
| 2026-04-25 17:30 | 33.95285 | -111.81453 | 9752 ft | 267 kts | 197° |
| 2026-04-25 17:30 | 33.93488 | -111.81991 | 9376 ft | 265 kts | 197° |
| 2026-04-25 17:31 | 33.91701 | -111.82536 | 9030 ft | 266 kts | 197° |
| 2026-04-25 17:31 | 33.89899 | -111.83082 | 8666 ft | 266 kts | 197° |
| 2026-04-25 17:31 | 33.88108 | -111.83617 | 8332 ft | 266 kts | 196° |
| 2026-04-25 17:31 | 33.86313 | -111.84155 | 7985 ft | 265 kts | 196° |
| 2026-04-25 17:32 | 33.84476 | -111.84364 | 7619 ft | 266 kts | 182° |
| 2026-04-25 17:32 | 33.82658 | -111.84324 | 7294 ft | 264 kts | 181° |
| 2026-04-25 17:32 | 33.80824 | -111.84313 | 6946 ft | 262 kts | 182° |
| 2026-04-25 17:32 | 33.78996 | -111.84318 | 6598 ft | 262 kts | 181° |
| 2026-04-25 17:33 | 33.77181 | -111.84313 | 6252 ft | 261 kts | 181° |
| 2026-04-25 17:33 | 33.75397 | -111.84302 | 5884 ft | 252 kts | 181° |
| 2026-04-25 17:33 | 33.73680 | -111.84293 | 5622 ft | 241 kts | 181° |
| 2026-04-25 17:33 | 33.72056 | -111.84486 | 5256 ft | 231 kts | 199° |
| 2026-04-25 17:34 | 33.70749 | -111.85540 | 4951 ft | 225 kts | 225° |
| 2026-04-25 17:34 | 33.70027 | -111.87165 | 4720 ft | 218 kts | 252° |
| 2026-04-25 17:34 | 33.69873 | -111.88890 | 4503 ft | 204 kts | 264° |
| 2026-04-25 17:34 | 33.69787 | -111.90533 | 4243 ft | 185 kts | 262° |
| 2026-04-25 17:35 | 33.69704 | -111.91973 | 3988 ft | 157 kts | 263° |
| 2026-04-25 17:35 | 33.69635 | -111.93171 | 3799 ft | 137 kts | 263° |
| 2026-04-25 17:35 | 33.69571 | -111.94282 | 3617 ft | 132 kts | 262° |
| 2026-04-25 17:35 | 33.69509 | -111.95362 | 3446 ft | 128 kts | 261° |
| 2026-04-25 17:36 | 33.69437 | -111.96400 | 3319 ft | 122 kts | 259° |
| 2026-04-25 17:36 | 33.69352 | -111.97420 | 3182 ft | 124 kts | 261° |
| 2026-04-25 17:36 | 33.69327 | -111.98470 | 3048 ft | 127 kts | 263° |
| 2026-04-25 17:36 | 33.69331 | -111.99526 | 2909 ft | 128 kts | 264° |
| 2026-04-25 17:37 | 33.69256 | -112.00610 | 2694 ft | 132 kts | 261° |
| 2026-04-25 17:37 | 33.69166 | -112.01722 | 2496 ft | 135 kts | 264° |
| 2026-04-25 17:37 | 33.69081 | -112.02842 | 2309 ft | 134 kts | 263° |
| 2026-04-25 17:37 | 33.69000 | -112.03959 | 2112 ft | 134 kts | 264° |
| 2026-04-25 17:38 | 33.68945 | -112.05070 | 1903 ft | 134 kts | 263° |
| 2026-04-25 17:38 | 33.68896 | -112.05823 | 1758 ft | 134 kts | 264° |
| 2026-04-25 17:38 | 33.68821 | -112.07301 | 1513 ft | 133 kts | 264° |
| 2026-04-25 17:38 | 33.68761 | -112.08340 | 1465 ft | 113 kts | 265° |
| 2026-04-25 17:39 | 33.68719 | -112.09046 | 1460 ft | 58 kts | 266° |
| 2026-04-25 17:39 | 33.68693 | -112.09462 | 1457 ft | 28 kts | 265° |
| 2026-04-25 17:39 | 33.68650 | -112.09547 | 1454 ft | 7 kts | 187° |
| 2026-04-25 17:39 | 33.68608 | -112.09526 | 1453 ft | 6 kts | 109° |
| 2026-04-25 17:40 | 33.68610 | -112.09484 | 1455 ft | 6 kts | 85° |
| 2026-04-25 17:40 | 33.68614 | -112.09422 | 1457 ft | 10 kts | 85° |
| 2026-04-25 17:40 | 33.68620 | -112.09322 | 1458 ft | 14 kts | 86° |
| 2026-04-25 17:40 | 33.68627 | -112.09192 | 1458 ft | 16 kts | 86° |
| 2026-04-25 17:41 | 33.68635 | -112.09062 | 1459 ft | 15 kts | 86° |
| 2026-04-25 17:41 | 33.68641 | -112.08953 | 1462 ft | 11 kts | 86° |
| 2026-04-25 17:41 | 33.68646 | -112.08863 | 1463 ft | 12 kts | 86° |
| 2026-04-25 17:41 | 33.68652 | -112.08755 | 1463 ft | 15 kts | 86° |
| 2026-04-25 17:42 | 33.68660 | -112.08626 | 1463 ft | 15 kts | 86° |
| 2026-04-25 17:42 | 33.68655 | -112.08524 | 1462 ft | 9 kts | 134° |
| 2026-04-25 17:42 | 33.68628 | -112.08486 | 1460 ft | 6 kts | 89° |
| 2026-04-25 17:42 | 33.68631 | -112.08455 | 1466 ft | 0 kts | 83° |
| 2026-04-25 17:44 | 33.68631 | -112.08452 | 1466 ft | 2 kts | 89° |
| 2026-04-25 17:44 | 33.68626 | -112.08406 | 1464 ft | 7 kts | 91° |
| 2026-04-25 17:44 | 33.68629 | -112.08327 | 1463 ft | 12 kts | 86° |
| 2026-04-25 17:44 | 33.68636 | -112.08198 | 1466 ft | 17 kts | 87° |
| 2026-04-25 17:45 | 33.68597 | -112.08190 | 1462 ft | 6 kts | 259° |
| 2026-04-25 17:45 | 33.68588 | -112.08224 | 1467 ft | 7 kts | 253° |
| 2026-04-25 17:45 | 33.68587 | -112.08281 | 1463 ft | 1 kts | 321° |
| 2026-04-25 17:45 | 33.68600 | -112.08290 | 1466 ft | 2 kts | 344° |
| 2026-04-25 17:46 | 33.68601 | -112.08290 | 1466 ft | 0 kts | 345° |